sensor_id;sensor_type;location;lat;lon;timestamp;P1;durP1;ratioP1;P2;durP2;ratioP2
58366;SDS011;57745;42.524;12.052;2022-07-19T00:02:11;3.70;;;3.40;;
58366;SDS011;57745;42.524;12.052;2022-07-19T00:04:37;3.72;;;3.42;;
58366;SDS011;57745;42.524;12.052;2022-07-19T00:07:02;3.83;;;3.38;;
58366;SDS011;57745;42.524;12.052;2022-07-19T00:09:28;3.90;;;3.00;;
58366;SDS011;57745;42.524;12.052;2022-07-19T00:11:54;4.32;;;3.92;;
58366;SDS011;57745;42.524;12.052;2022-07-19T00:14:20;4.47;;;3.33;;
58366;SDS011;57745;42.524;12.052;2022-07-19T00:16:46;4.38;;;3.60;;
58366;SDS011;57745;42.524;12.052;2022-07-19T00:19:12;3.53;;;3.22;;
58366;SDS011;57745;42.524;12.052;2022-07-19T00:21:38;4.53;;;3.17;;
58366;SDS011;57745;42.524;12.052;2022-07-19T00:24:03;3.63;;;3.33;;
58366;SDS011;57745;42.524;12.052;2022-07-19T00:26:29;3.53;;;3.15;;
58366;SDS011;57745;42.524;12.052;2022-07-19T00:28:55;3.53;;;3.22;;
58366;SDS011;57745;42.524;12.052;2022-07-19T00:31:24;4.25;;;3.63;;
58366;SDS011;57745;42.524;12.052;2022-07-19T00:33:50;3.50;;;3.15;;
58366;SDS011;57745;42.524;12.052;2022-07-19T00:36:16;3.60;;;2.97;;
58366;SDS011;57745;42.524;12.052;2022-07-19T00:38:41;3.55;;;3.25;;
58366;SDS011;57745;42.524;12.052;2022-07-19T00:41:07;3.35;;;3.13;;
58366;SDS011;57745;42.524;12.052;2022-07-19T00:43:33;4.50;;;3.58;;
58366;SDS011;57745;42.524;12.052;2022-07-19T00:45:58;3.72;;;3.42;;
58366;SDS011;57745;42.524;12.052;2022-07-19T00:48:24;5.30;;;3.30;;
58366;SDS011;57745;42.524;12.052;2022-07-19T00:50:49;4.20;;;3.20;;
58366;SDS011;57745;42.524;12.052;2022-07-19T00:53:15;3.58;;;3.28;;
58366;SDS011;57745;42.524;12.052;2022-07-19T00:55:43;3.55;;;3.03;;
58366;SDS011;57745;42.524;12.052;2022-07-19T00:58:10;3.97;;;3.28;;
58366;SDS011;57745;42.524;12.052;2022-07-19T01:00:39;3.65;;;3.10;;
58366;SDS011;57745;42.524;12.052;2022-07-19T01:03:06;5.45;;;2.85;;
58366;SDS011;57745;42.524;12.052;2022-07-19T01:05:35;3.45;;;3.15;;
58366;SDS011;57745;42.524;12.052;2022-07-19T01:08:01;4.28;;;3.30;;
58366;SDS011;57745;42.524;12.052;2022-07-19T01:10:26;3.45;;;3.10;;
58366;SDS011;57745;42.524;12.052;2022-07-19T01:12:52;3.30;;;3.10;;
58366;SDS011;57745;42.524;12.052;2022-07-19T01:15:22;3.72;;;3.30;;
58366;SDS011;57745;42.524;12.052;2022-07-19T01:17:50;4.97;;;3.10;;
58366;SDS011;57745;42.524;12.052;2022-07-19T01:20:17;3.05;;;2.83;;
58366;SDS011;57745;42.524;12.052;2022-07-19T01:22:45;3.35;;;3.10;;
58366;SDS011;57745;42.524;12.052;2022-07-19T01:25:11;4.15;;;3.10;;
58366;SDS011;57745;42.524;12.052;2022-07-19T01:27:38;3.53;;;3.22;;
58366;SDS011;57745;42.524;12.052;2022-07-19T01:30:17;3.90;;;3.38;;
58366;SDS011;57745;42.524;12.052;2022-07-19T01:32:45;3.55;;;3.25;;
58366;SDS011;57745;42.524;12.052;2022-07-19T01:35:11;3.63;;;3.05;;
58366;SDS011;57745;42.524;12.052;2022-07-19T01:37:37;3.50;;;3.20;;
58366;SDS011;57745;42.524;12.052;2022-07-19T01:40:03;4.72;;;3.13;;
58366;SDS011;57745;42.524;12.052;2022-07-19T01:42:31;3.30;;;3.00;;
58366;SDS011;57745;42.524;12.052;2022-07-19T01:44:56;3.30;;;3.00;;
58366;SDS011;57745;42.524;12.052;2022-07-19T01:47:22;3.58;;;3.00;;
58366;SDS011;57745;42.524;12.052;2022-07-19T01:49:48;3.88;;;3.00;;
58366;SDS011;57745;42.524;12.052;2022-07-19T01:52:14;3.03;;;2.72;;
58366;SDS011;57745;42.524;12.052;2022-07-19T01:54:39;3.05;;;2.72;;
58366;SDS011;57745;42.524;12.052;2022-07-19T01:57:05;3.15;;;2.85;;
58366;SDS011;57745;42.524;12.052;2022-07-19T01:59:30;2.70;;;2.50;;
58366;SDS011;57745;42.524;12.052;2022-07-19T02:01:56;3.50;;;3.17;;
58366;SDS011;57745;42.524;12.052;2022-07-19T02:04:21;3.60;;;3.30;;
58366;SDS011;57745;42.524;12.052;2022-07-19T02:06:47;2.70;;;2.50;;
58366;SDS011;57745;42.524;12.052;2022-07-19T02:09:12;3.20;;;2.90;;
58366;SDS011;57745;42.524;12.052;2022-07-19T02:11:37;2.92;;;2.70;;
58366;SDS011;57745;42.524;12.052;2022-07-19T02:14:07;3.53;;;2.88;;
58366;SDS011;57745;42.524;12.052;2022-07-19T02:16:34;3.17;;;2.83;;
58366;SDS011;57745;42.524;12.052;2022-07-19T02:19:00;3.28;;;3.03;;
58366;SDS011;57745;42.524;12.052;2022-07-19T02:21:26;3.80;;;2.97;;
58366;SDS011;57745;42.524;12.052;2022-07-19T02:23:52;3.17;;;2.88;;
58366;SDS011;57745;42.524;12.052;2022-07-19T02:26:17;3.20;;;2.90;;
58366;SDS011;57745;42.524;12.052;2022-07-19T02:28:43;3.30;;;3.00;;
58366;SDS011;57745;42.524;12.052;2022-07-19T02:31:08;3.33;;;3.03;;
58366;SDS011;57745;42.524;12.052;2022-07-19T02:33:35;3.25;;;2.92;;
58366;SDS011;57745;42.524;12.052;2022-07-19T02:36:00;3.10;;;2.70;;
58366;SDS011;57745;42.524;12.052;2022-07-19T02:38:26;4.05;;;2.85;;
58366;SDS011;57745;42.524;12.052;2022-07-19T02:40:51;3.20;;;2.90;;
58366;SDS011;57745;42.524;12.052;2022-07-19T02:43:17;3.83;;;2.90;;
58366;SDS011;57745;42.524;12.052;2022-07-19T02:45:42;3.90;;;2.80;;
58366;SDS011;57745;42.524;12.052;2022-07-19T02:48:08;3.30;;;3.00;;
58366;SDS011;57745;42.524;12.052;2022-07-19T02:50:34;2.90;;;2.60;;
58366;SDS011;57745;42.524;12.052;2022-07-19T02:53:00;2.83;;;2.63;;
58366;SDS011;57745;42.524;12.052;2022-07-19T02:55:26;4.57;;;2.92;;
58366;SDS011;57745;42.524;12.052;2022-07-19T02:57:51;3.00;;;2.80;;
58366;SDS011;57745;42.524;12.052;2022-07-19T03:00:17;2.70;;;2.50;;
58366;SDS011;57745;42.524;12.052;2022-07-19T03:02:42;4.00;;;2.40;;
58366;SDS011;57745;42.524;12.052;2022-07-19T03:05:08;2.92;;;2.50;;
58366;SDS011;57745;42.524;12.052;2022-07-19T03:07:34;3.05;;;2.75;;
58366;SDS011;57745;42.524;12.052;2022-07-19T03:09:59;2.75;;;2.55;;
58366;SDS011;57745;42.524;12.052;2022-07-19T03:12:25;2.90;;;2.70;;
58366;SDS011;57745;42.524;12.052;2022-07-19T03:14:50;3.10;;;2.80;;
58366;SDS011;57745;42.524;12.052;2022-07-19T03:17:16;3.13;;;2.83;;
58366;SDS011;57745;42.524;12.052;2022-07-19T03:19:41;2.60;;;2.38;;
58366;SDS011;57745;42.524;12.052;2022-07-19T03:22:07;3.30;;;2.47;;
58366;SDS011;57745;42.524;12.052;2022-07-19T03:24:33;2.75;;;2.55;;
58366;SDS011;57745;42.524;12.052;2022-07-19T03:26:59;2.70;;;2.50;;
58366;SDS011;57745;42.524;12.052;2022-07-19T03:29:24;2.90;;;2.60;;
58366;SDS011;57745;42.524;12.052;2022-07-19T03:31:50;3.08;;;2.80;;
58366;SDS011;57745;42.524;12.052;2022-07-19T03:34:15;3.17;;;2.47;;
58366;SDS011;57745;42.524;12.052;2022-07-19T03:36:41;3.67;;;2.80;;
58366;SDS011;57745;42.524;12.052;2022-07-19T03:39:07;2.97;;;2.63;;
58366;SDS011;57745;42.524;12.052;2022-07-19T03:41:32;2.72;;;2.53;;
58366;SDS011;57745;42.524;12.052;2022-07-19T03:43:58;2.72;;;2.45;;
58366;SDS011;57745;42.524;12.052;2022-07-19T03:46:23;2.65;;;2.45;;
58366;SDS011;57745;42.524;12.052;2022-07-19T03:48:50;3.05;;;2.80;;
58366;SDS011;57745;42.524;12.052;2022-07-19T03:51:15;2.80;;;2.40;;
58366;SDS011;57745;42.524;12.052;2022-07-19T03:53:41;2.88;;;2.33;;
58366;SDS011;57745;42.524;12.052;2022-07-19T03:56:06;3.55;;;2.75;;
58366;SDS011;57745;42.524;12.052;2022-07-19T03:58:32;3.53;;;2.75;;
58366;SDS011;57745;42.524;12.052;2022-07-19T04:00:57;3.40;;;2.42;;
58366;SDS011;57745;42.524;12.052;2022-07-19T04:03:23;2.55;;;2.35;;
58366;SDS011;57745;42.524;12.052;2022-07-19T04:05:48;3.92;;;2.45;;
58366;SDS011;57745;42.524;12.052;2022-07-19T04:08:14;2.50;;;2.30;;
58366;SDS011;57745;42.524;12.052;2022-07-19T04:10:40;2.42;;;2.22;;
58366;SDS011;57745;42.524;12.052;2022-07-19T04:13:06;2.47;;;2.20;;
58366;SDS011;57745;42.524;12.052;2022-07-19T04:15:32;2.20;;;2.00;;
58366;SDS011;57745;42.524;12.052;2022-07-19T04:17:57;2.17;;;1.90;;
58366;SDS011;57745;42.524;12.052;2022-07-19T04:20:23;2.30;;;2.10;;
58366;SDS011;57745;42.524;12.052;2022-07-19T04:22:49;2.28;;;1.90;;
58366;SDS011;57745;42.524;12.052;2022-07-19T04:25:14;2.45;;;2.25;;
58366;SDS011;57745;42.524;12.052;2022-07-19T04:27:40;2.50;;;2.08;;
58366;SDS011;57745;42.524;12.052;2022-07-19T04:30:05;2.50;;;1.80;;
58366;SDS011;57745;42.524;12.052;2022-07-19T04:32:31;2.83;;;1.95;;
58366;SDS011;57745;42.524;12.052;2022-07-19T04:34:58;2.33;;;2.13;;
58366;SDS011;57745;42.524;12.052;2022-07-19T04:37:24;2.28;;;2.05;;
58366;SDS011;57745;42.524;12.052;2022-07-19T04:39:50;2.28;;;2.03;;
58366;SDS011;57745;42.524;12.052;2022-07-19T04:42:15;2.25;;;2.05;;
58366;SDS011;57745;42.524;12.052;2022-07-19T04:44:41;2.17;;;1.98;;
58366;SDS011;57745;42.524;12.052;2022-07-19T04:47:06;1.73;;;1.63;;
58366;SDS011;57745;42.524;12.052;2022-07-19T04:49:32;2.35;;;2.00;;
58366;SDS011;57745;42.524;12.052;2022-07-19T04:51:57;3.50;;;1.80;;
58366;SDS011;57745;42.524;12.052;2022-07-19T04:54:23;4.03;;;2.20;;
58366;SDS011;57745;42.524;12.052;2022-07-19T04:56:48;1.98;;;1.80;;
58366;SDS011;57745;42.524;12.052;2022-07-19T04:59:14;2.08;;;1.88;;
58366;SDS011;57745;42.524;12.052;2022-07-19T05:01:39;2.95;;;1.90;;
58366;SDS011;57745;42.524;12.052;2022-07-19T05:04:05;3.28;;;1.80;;
58366;SDS011;57745;42.524;12.052;2022-07-19T05:06:30;3.55;;;2.13;;
58366;SDS011;57745;42.524;12.052;2022-07-19T05:08:56;2.92;;;2.63;;
58366;SDS011;57745;42.524;12.052;2022-07-19T05:11:22;2.75;;;2.50;;
58366;SDS011;57745;42.524;12.052;2022-07-19T05:13:47;2.75;;;2.17;;
58366;SDS011;57745;42.524;12.052;2022-07-19T05:16:13;3.60;;;2.03;;
58366;SDS011;57745;42.524;12.052;2022-07-19T05:18:38;3.58;;;2.35;;
58366;SDS011;57745;42.524;12.052;2022-07-19T05:21:04;2.78;;;2.40;;
58366;SDS011;57745;42.524;12.052;2022-07-19T05:23:29;3.28;;;2.20;;
58366;SDS011;57745;42.524;12.052;2022-07-19T05:25:55;2.75;;;2.42;;
58366;SDS011;57745;42.524;12.052;2022-07-19T05:28:20;3.47;;;2.20;;
58366;SDS011;57745;42.524;12.052;2022-07-19T05:30:46;3.42;;;2.30;;
58366;SDS011;57745;42.524;12.052;2022-07-19T05:33:11;3.25;;;2.17;;
58366;SDS011;57745;42.524;12.052;2022-07-19T05:35:37;4.47;;;2.45;;
58366;SDS011;57745;42.524;12.052;2022-07-19T05:38:03;2.88;;;2.13;;
58366;SDS011;57745;42.524;12.052;2022-07-19T05:40:28;4.57;;;2.20;;
58366;SDS011;57745;42.524;12.052;2022-07-19T05:42:54;3.85;;;2.03;;
58366;SDS011;57745;42.524;12.052;2022-07-19T05:45:19;4.40;;;2.10;;
58366;SDS011;57745;42.524;12.052;2022-07-19T05:47:45;6.18;;;2.10;;
58366;SDS011;57745;42.524;12.052;2022-07-19T05:50:10;4.22;;;2.55;;
58366;SDS011;57745;42.524;12.052;2022-07-19T05:52:36;3.03;;;2.40;;
58366;SDS011;57745;42.524;12.052;2022-07-19T05:55:01;4.60;;;2.03;;
58366;SDS011;57745;42.524;12.052;2022-07-19T05:57:27;4.00;;;2.40;;
58366;SDS011;57745;42.524;12.052;2022-07-19T05:59:53;6.43;;;2.55;;
58366;SDS011;57745;42.524;12.052;2022-07-19T06:02:19;4.40;;;2.05;;
58366;SDS011;57745;42.524;12.052;2022-07-19T06:04:44;4.85;;;2.38;;
58366;SDS011;57745;42.524;12.052;2022-07-19T06:07:10;3.28;;;2.13;;
58366;SDS011;57745;42.524;12.052;2022-07-19T06:09:36;4.55;;;2.75;;
58366;SDS011;57745;42.524;12.052;2022-07-19T06:12:01;8.27;;;2.40;;
58366;SDS011;57745;42.524;12.052;2022-07-19T06:14:27;2.95;;;2.33;;
58366;SDS011;57745;42.524;12.052;2022-07-19T06:16:52;3.22;;;2.28;;
58366;SDS011;57745;42.524;12.052;2022-07-19T06:19:19;5.47;;;1.85;;
58366;SDS011;57745;42.524;12.052;2022-07-19T06:21:44;3.92;;;2.10;;
58366;SDS011;57745;42.524;12.052;2022-07-19T06:24:11;4.03;;;2.00;;
58366;SDS011;57745;42.524;12.052;2022-07-19T06:26:36;4.63;;;2.10;;
58366;SDS011;57745;42.524;12.052;2022-07-19T06:29:02;4.25;;;2.10;;
58366;SDS011;57745;42.524;12.052;2022-07-19T06:31:28;3.58;;;2.30;;
58366;SDS011;57745;42.524;12.052;2022-07-19T06:33:53;4.82;;;2.10;;
58366;SDS011;57745;42.524;12.052;2022-07-19T06:36:19;2.40;;;1.92;;
58366;SDS011;57745;42.524;12.052;2022-07-19T06:38:45;3.25;;;1.92;;
58366;SDS011;57745;42.524;12.052;2022-07-19T06:41:12;3.22;;;1.83;;
58366;SDS011;57745;42.524;12.052;2022-07-19T06:43:39;3.03;;;2.25;;
58366;SDS011;57745;42.524;12.052;2022-07-19T06:46:05;4.45;;;2.05;;
58366;SDS011;57745;42.524;12.052;2022-07-19T06:48:30;4.35;;;2.05;;
58366;SDS011;57745;42.524;12.052;2022-07-19T06:50:56;3.22;;;1.95;;
58366;SDS011;57745;42.524;12.052;2022-07-19T06:53:21;3.75;;;2.00;;
58366;SDS011;57745;42.524;12.052;2022-07-19T06:55:47;4.60;;;1.83;;
58366;SDS011;57745;42.524;12.052;2022-07-19T06:58:13;4.10;;;1.77;;
58366;SDS011;57745;42.524;12.052;2022-07-19T07:00:39;2.95;;;2.38;;
58366;SDS011;57745;42.524;12.052;2022-07-19T07:03:04;2.92;;;2.08;;
58366;SDS011;57745;42.524;12.052;2022-07-19T07:05:30;2.80;;;2.30;;
58366;SDS011;57745;42.524;12.052;2022-07-19T07:07:55;2.33;;;1.92;;
58366;SDS011;57745;42.524;12.052;2022-07-19T07:10:21;5.63;;;1.77;;
58366;SDS011;57745;42.524;12.052;2022-07-19T07:12:46;2.55;;;1.60;;
58366;SDS011;57745;42.524;12.052;2022-07-19T07:15:12;8.23;;;2.50;;
58366;SDS011;57745;42.524;12.052;2022-07-19T07:17:38;2.33;;;1.73;;
58366;SDS011;57745;42.524;12.052;2022-07-19T07:20:04;4.00;;;1.60;;
58366;SDS011;57745;42.524;12.052;2022-07-19T07:22:31;1.92;;;1.65;;
58366;SDS011;57745;42.524;12.052;2022-07-19T07:24:57;2.92;;;1.90;;
58366;SDS011;57745;42.524;12.052;2022-07-19T07:27:22;2.20;;;2.00;;
58366;SDS011;57745;42.524;12.052;2022-07-19T07:29:48;1.80;;;1.70;;
58366;SDS011;57745;42.524;12.052;2022-07-19T07:32:13;3.33;;;1.60;;
58366;SDS011;57745;42.524;12.052;2022-07-19T07:34:39;2.15;;;1.73;;
58366;SDS011;57745;42.524;12.052;2022-07-19T07:37:05;2.40;;;1.60;;
58366;SDS011;57745;42.524;12.052;2022-07-19T07:39:30;2.25;;;1.85;;
58366;SDS011;57745;42.524;12.052;2022-07-19T07:41:56;3.00;;;1.70;;
58366;SDS011;57745;42.524;12.052;2022-07-19T07:44:21;2.90;;;1.50;;
58366;SDS011;57745;42.524;12.052;2022-07-19T07:46:47;2.42;;;1.88;;
58366;SDS011;57745;42.524;12.052;2022-07-19T07:49:12;1.63;;;1.52;;
58366;SDS011;57745;42.524;12.052;2022-07-19T07:51:38;2.53;;;1.75;;
58366;SDS011;57745;42.524;12.052;2022-07-19T07:54:03;3.35;;;1.50;;
58366;SDS011;57745;42.524;12.052;2022-07-19T07:56:29;1.80;;;1.60;;
58366;SDS011;57745;42.524;12.052;2022-07-19T07:58:54;1.55;;;1.33;;
58366;SDS011;57745;42.524;12.052;2022-07-19T08:01:20;5.43;;;2.03;;
58366;SDS011;57745;42.524;12.052;2022-07-19T08:03:45;3.20;;;1.60;;
58366;SDS011;57745;42.524;12.052;2022-07-19T08:06:11;4.72;;;1.55;;
58366;SDS011;57745;42.524;12.052;2022-07-19T08:08:37;3.75;;;1.80;;
58366;SDS011;57745;42.524;12.052;2022-07-19T08:11:03;2.60;;;1.73;;
58366;SDS011;57745;42.524;12.052;2022-07-19T08:13:29;2.90;;;1.65;;
58366;SDS011;57745;42.524;12.052;2022-07-19T08:15:55;2.33;;;1.80;;
58366;SDS011;57745;42.524;12.052;2022-07-19T08:18:20;2.22;;;1.73;;
58366;SDS011;57745;42.524;12.052;2022-07-19T08:20:47;2.20;;;1.65;;
58366;SDS011;57745;42.524;12.052;2022-07-19T08:23:12;4.40;;;1.88;;
58366;SDS011;57745;42.524;12.052;2022-07-19T08:25:38;3.75;;;1.63;;
58366;SDS011;57745;42.524;12.052;2022-07-19T08:28:03;2.53;;;1.52;;
58366;SDS011;57745;42.524;12.052;2022-07-19T08:30:29;2.88;;;1.60;;
58366;SDS011;57745;42.524;12.052;2022-07-19T08:32:55;2.70;;;1.60;;
58366;SDS011;57745;42.524;12.052;2022-07-19T08:35:21;3.22;;;1.67;;
58366;SDS011;57745;42.524;12.052;2022-07-19T08:37:46;2.83;;;1.60;;
58366;SDS011;57745;42.524;12.052;2022-07-19T08:40:12;2.17;;;1.77;;
58366;SDS011;57745;42.524;12.052;2022-07-19T08:42:38;2.35;;;1.70;;
58366;SDS011;57745;42.524;12.052;2022-07-19T08:45:05;5.85;;;1.73;;
58366;SDS011;57745;42.524;12.052;2022-07-19T08:47:32;3.42;;;1.90;;
58366;SDS011;57745;42.524;12.052;2022-07-19T08:49:59;2.10;;;1.83;;
58366;SDS011;57745;42.524;12.052;2022-07-19T08:52:26;2.50;;;1.77;;
58366;SDS011;57745;42.524;12.052;2022-07-19T08:54:52;2.13;;;1.60;;
58366;SDS011;57745;42.524;12.052;2022-07-19T08:57:19;6.82;;;2.05;;
58366;SDS011;57745;42.524;12.052;2022-07-19T09:00:04;2.22;;;1.80;;
58366;SDS011;57745;42.524;12.052;2022-07-19T09:02:30;1.92;;;1.70;;
58366;SDS011;57745;42.524;12.052;2022-07-19T09:04:59;5.60;;;1.80;;
58366;SDS011;57745;42.524;12.052;2022-07-19T09:07:26;3.80;;;1.60;;
58366;SDS011;57745;42.524;12.052;2022-07-19T09:09:52;2.80;;;1.65;;
58366;SDS011;57745;42.524;12.052;2022-07-19T09:12:17;1.75;;;1.60;;
58366;SDS011;57745;42.524;12.052;2022-07-19T09:14:42;2.28;;;2.00;;
58366;SDS011;57745;42.524;12.052;2022-07-19T09:17:18;2.95;;;2.00;;
58366;SDS011;57745;42.524;12.052;2022-07-19T09:19:45;2.70;;;1.70;;
58366;SDS011;57745;42.524;12.052;2022-07-19T09:24:42;1.90;;;1.60;;
58366;SDS011;57745;42.524;12.052;2022-07-19T09:27:17;8.30;;;2.15;;
58366;SDS011;57745;42.524;12.052;2022-07-19T09:29:45;1.75;;;1.65;;
58366;SDS011;57745;42.524;12.052;2022-07-19T09:32:16;4.47;;;1.65;;
58366;SDS011;57745;42.524;12.052;2022-07-19T09:37:16;2.33;;;1.80;;
58366;SDS011;57745;42.524;12.052;2022-07-19T09:39:57;2.28;;;2.08;;
58366;SDS011;57745;42.524;12.052;2022-07-19T09:42:39;5.03;;;1.80;;
58366;SDS011;57745;42.524;12.052;2022-07-19T09:47:38;2.38;;;1.95;;
58366;SDS011;57745;42.524;12.052;2022-07-19T09:50:06;3.00;;;1.80;;
58366;SDS011;57745;42.524;12.052;2022-07-19T09:52:42;4.07;;;1.90;;
58366;SDS011;57745;42.524;12.052;2022-07-19T09:55:09;2.28;;;1.80;;
58366;SDS011;57745;42.524;12.052;2022-07-19T09:57:36;2.15;;;1.77;;
58366;SDS011;57745;42.524;12.052;2022-07-19T10:00:05;3.05;;;1.80;;
58366;SDS011;57745;42.524;12.052;2022-07-19T10:02:33;2.15;;;1.95;;
58366;SDS011;57745;42.524;12.052;2022-07-19T10:05:02;4.70;;;1.95;;
58366;SDS011;57745;42.524;12.052;2022-07-19T10:07:31;11.02;;;2.10;;
58366;SDS011;57745;42.524;12.052;2022-07-19T10:09:57;2.17;;;1.92;;
58366;SDS011;57745;42.524;12.052;2022-07-19T10:12:27;3.40;;;1.40;;
58366;SDS011;57745;42.524;12.052;2022-07-19T10:14:54;2.42;;;1.55;;
58366;SDS011;57745;42.524;12.052;2022-07-19T10:20:09;3.65;;;1.60;;
58366;SDS011;57745;42.524;12.052;2022-07-19T10:22:40;2.78;;;1.60;;
58366;SDS011;57745;42.524;12.052;2022-07-19T10:27:40;1.77;;;1.45;;
58366;SDS011;57745;42.524;12.052;2022-07-19T10:32:32;2.15;;;1.60;;
58366;SDS011;57745;42.524;12.052;2022-07-19T10:43:13;1.92;;;1.60;;
58366;SDS011;57745;42.524;12.052;2022-07-19T10:46:29;2.13;;;1.70;;
58366;SDS011;57745;42.524;12.052;2022-07-19T10:48:34;1.92;;;1.35;;
58366;SDS011;57745;42.524;12.052;2022-07-19T10:51:02;2.58;;;1.20;;
58366;SDS011;57745;42.524;12.052;2022-07-19T10:56:18;5.18;;;1.40;;
58366;SDS011;57745;42.524;12.052;2022-07-19T10:58:59;2.05;;;1.10;;
58366;SDS011;57745;42.524;12.052;2022-07-19T11:01:30;2.42;;;1.30;;
58366;SDS011;57745;42.524;12.052;2022-07-19T11:09:57;3.35;;;1.30;;
58366;SDS011;57745;42.524;12.052;2022-07-19T11:14:57;1.65;;;1.10;;
58366;SDS011;57745;42.524;12.052;2022-07-19T11:17:24;7.45;;;1.60;;
58366;SDS011;57745;42.524;12.052;2022-07-19T11:20:06;2.65;;;1.10;;
58366;SDS011;57745;42.524;12.052;2022-07-19T11:22:34;2.65;;;1.40;;
58366;SDS011;57745;42.524;12.052;2022-07-19T11:25:03;2.45;;;1.50;;
58366;SDS011;57745;42.524;12.052;2022-07-19T11:27:30;3.67;;;1.63;;
58366;SDS011;57745;42.524;12.052;2022-07-19T11:29:57;3.67;;;1.60;;
58366;SDS011;57745;42.524;12.052;2022-07-19T11:32:24;3.55;;;1.60;;
58366;SDS011;57745;42.524;12.052;2022-07-19T11:34:56;2.63;;;1.40;;
58366;SDS011;57745;42.524;12.052;2022-07-19T11:37:24;4.03;;;1.50;;
58366;SDS011;57745;42.524;12.052;2022-07-19T11:39:51;1.38;;;1.25;;
58366;SDS011;57745;42.524;12.052;2022-07-19T11:42:26;1.60;;;1.20;;
58366;SDS011;57745;42.524;12.052;2022-07-19T11:44:56;3.33;;;1.70;;
58366;SDS011;57745;42.524;12.052;2022-07-19T11:47:21;1.25;;;1.15;;
58366;SDS011;57745;42.524;12.052;2022-07-19T11:49:47;2.30;;;1.23;;
58366;SDS011;57745;42.524;12.052;2022-07-19T11:52:12;2.40;;;1.30;;
58366;SDS011;57745;42.524;12.052;2022-07-19T11:54:38;1.40;;;1.30;;
58366;SDS011;57745;42.524;12.052;2022-07-19T11:57:03;3.03;;;1.20;;
58366;SDS011;57745;42.524;12.052;2022-07-19T11:59:29;1.30;;;1.10;;
58366;SDS011;57745;42.524;12.052;2022-07-19T12:01:55;1.92;;;1.38;;
58366;SDS011;57745;42.524;12.052;2022-07-19T12:04:24;4.13;;;1.70;;
58366;SDS011;57745;42.524;12.052;2022-07-19T12:06:50;2.15;;;1.15;;
58366;SDS011;57745;42.524;12.052;2022-07-19T12:09:26;2.58;;;1.40;;
58366;SDS011;57745;42.524;12.052;2022-07-19T12:11:53;2.20;;;1.25;;
58366;SDS011;57745;42.524;12.052;2022-07-19T12:14:23;2.15;;;1.05;;
58366;SDS011;57745;42.524;12.052;2022-07-19T12:16:50;2.00;;;1.20;;
58366;SDS011;57745;42.524;12.052;2022-07-19T12:19:34;3.58;;;1.60;;
58366;SDS011;57745;42.524;12.052;2022-07-19T12:21:59;2.30;;;1.20;;
58366;SDS011;57745;42.524;12.052;2022-07-19T12:24:26;2.20;;;1.08;;
58366;SDS011;57745;42.524;12.052;2022-07-19T12:27:06;1.48;;;1.20;;
58366;SDS011;57745;42.524;12.052;2022-07-19T12:29:51;2.08;;;1.30;;
58366;SDS011;57745;42.524;12.052;2022-07-19T12:32:27;2.30;;;1.25;;
58366;SDS011;57745;42.524;12.052;2022-07-19T12:35:04;2.47;;;1.02;;
58366;SDS011;57745;42.524;12.052;2022-07-19T12:37:35;3.65;;;1.00;;
58366;SDS011;57745;42.524;12.052;2022-07-19T12:45:01;3.30;;;1.20;;
58366;SDS011;57745;42.524;12.052;2022-07-19T12:47:28;4.25;;;1.35;;
58366;SDS011;57745;42.524;12.052;2022-07-19T12:49:53;3.90;;;1.15;;
58366;SDS011;57745;42.524;12.052;2022-07-19T12:52:18;1.60;;;0.80;;
58366;SDS011;57745;42.524;12.052;2022-07-19T12:54:44;3.28;;;0.90;;
58366;SDS011;57745;42.524;12.052;2022-07-19T12:57:09;2.05;;;1.08;;
58366;SDS011;57745;42.524;12.052;2022-07-19T12:59:35;1.10;;;0.93;;
58366;SDS011;57745;42.524;12.052;2022-07-19T13:02:03;1.20;;;0.98;;
58366;SDS011;57745;42.524;12.052;2022-07-19T13:04:29;1.30;;;0.93;;
58366;SDS011;57745;42.524;12.052;2022-07-19T13:06:55;2.35;;;1.10;;
58366;SDS011;57745;42.524;12.052;2022-07-19T13:09:20;1.77;;;0.80;;
58366;SDS011;57745;42.524;12.052;2022-07-19T13:11:46;2.42;;;0.90;;
58366;SDS011;57745;42.524;12.052;2022-07-19T13:14:11;3.35;;;1.00;;
58366;SDS011;57745;42.524;12.052;2022-07-19T13:16:37;1.85;;;1.10;;
58366;SDS011;57745;42.524;12.052;2022-07-19T13:19:03;1.65;;;1.15;;
58366;SDS011;57745;42.524;12.052;2022-07-19T13:21:29;2.25;;;0.88;;
58366;SDS011;57745;42.524;12.052;2022-07-19T13:23:55;1.65;;;1.08;;
58366;SDS011;57745;42.524;12.052;2022-07-19T13:26:20;1.10;;;1.00;;
58366;SDS011;57745;42.524;12.052;2022-07-19T13:28:46;1.30;;;1.00;;
58366;SDS011;57745;42.524;12.052;2022-07-19T13:31:11;1.65;;;0.90;;
58366;SDS011;57745;42.524;12.052;2022-07-19T13:33:37;1.10;;;1.00;;
58366;SDS011;57745;42.524;12.052;2022-07-19T13:36:02;1.75;;;1.20;;
58366;SDS011;57745;42.524;12.052;2022-07-19T13:38:28;1.60;;;0.85;;
58366;SDS011;57745;42.524;12.052;2022-07-19T13:40:53;1.58;;;1.10;;
58366;SDS011;57745;42.524;12.052;2022-07-19T13:43:19;2.90;;;0.90;;
58366;SDS011;57745;42.524;12.052;2022-07-19T13:45:45;3.25;;;1.15;;
58366;SDS011;57745;42.524;12.052;2022-07-19T13:48:10;1.10;;;0.93;;
58366;SDS011;57745;42.524;12.052;2022-07-19T13:50:36;1.38;;;0.98;;
58366;SDS011;57745;42.524;12.052;2022-07-19T13:53:02;1.90;;;1.17;;
58366;SDS011;57745;42.524;12.052;2022-07-19T13:55:27;1.20;;;1.02;;
58366;SDS011;57745;42.524;12.052;2022-07-19T13:57:53;1.33;;;0.90;;
58366;SDS011;57745;42.524;12.052;2022-07-19T14:00:20;1.05;;;0.90;;
58366;SDS011;57745;42.524;12.052;2022-07-19T14:02:46;1.98;;;0.98;;
58366;SDS011;57745;42.524;12.052;2022-07-19T14:05:11;1.95;;;0.85;;
58366;SDS011;57745;42.524;12.052;2022-07-19T14:07:37;1.90;;;1.00;;
58366;SDS011;57745;42.524;12.052;2022-07-19T14:10:03;2.90;;;1.00;;
58366;SDS011;57745;42.524;12.052;2022-07-19T14:12:30;1.15;;;0.88;;
58366;SDS011;57745;42.524;12.052;2022-07-19T14:14:56;2.30;;;1.00;;
58366;SDS011;57745;42.524;12.052;2022-07-19T14:17:22;4.20;;;0.93;;
58366;SDS011;57745;42.524;12.052;2022-07-19T14:19:48;1.70;;;0.95;;
58366;SDS011;57745;42.524;12.052;2022-07-19T14:22:13;1.60;;;1.20;;
58366;SDS011;57745;42.524;12.052;2022-07-19T14:24:40;1.55;;;1.02;;
58366;SDS011;57745;42.524;12.052;2022-07-19T14:27:05;1.33;;;0.80;;
58366;SDS011;57745;42.524;12.052;2022-07-19T14:29:31;2.70;;;1.08;;
58366;SDS011;57745;42.524;12.052;2022-07-19T14:31:56;4.22;;;1.23;;
58366;SDS011;57745;42.524;12.052;2022-07-19T14:34:22;2.90;;;1.10;;
58366;SDS011;57745;42.524;12.052;2022-07-19T14:36:47;2.47;;;1.00;;
58366;SDS011;57745;42.524;12.052;2022-07-19T14:39:13;1.75;;;0.98;;
58366;SDS011;57745;42.524;12.052;2022-07-19T14:41:38;1.77;;;1.10;;
58366;SDS011;57745;42.524;12.052;2022-07-19T14:44:04;2.35;;;0.90;;
58366;SDS011;57745;42.524;12.052;2022-07-19T14:46:30;1.30;;;1.10;;
58366;SDS011;57745;42.524;12.052;2022-07-19T14:48:56;1.40;;;1.00;;
58366;SDS011;57745;42.524;12.052;2022-07-19T14:51:21;2.30;;;0.98;;
58366;SDS011;57745;42.524;12.052;2022-07-19T14:53:47;1.50;;;1.08;;
58366;SDS011;57745;42.524;12.052;2022-07-19T14:56:12;1.20;;;1.10;;
58366;SDS011;57745;42.524;12.052;2022-07-19T14:58:38;1.20;;;1.10;;
58366;SDS011;57745;42.524;12.052;2022-07-19T15:01:04;3.40;;;1.20;;
58366;SDS011;57745;42.524;12.052;2022-07-19T15:03:29;1.35;;;0.90;;
58366;SDS011;57745;42.524;12.052;2022-07-19T15:05:55;1.42;;;1.20;;
58366;SDS011;57745;42.524;12.052;2022-07-19T15:08:20;2.05;;;1.23;;
58366;SDS011;57745;42.524;12.052;2022-07-19T15:10:46;2.03;;;1.30;;